Абакан

Карта отелей и гостиниц, располагающихся рядом с аэропортом Абакан :

Абакан Республика Хакасия 53° 44' 27.8988" N, 91° 23' 9.78" E
Код аэродрома ИКАО
UNAA
Код аэродрома RU
УНАА
Координаты
N53.74108° E091.38605°
Превышение над уровнем моря
253
Основная полоса
02R/20L
Курс магнитный
020,7/200,7
Длина основной ВПП
2500
Ширина основной ВПП
45
Покрытие основной ВПП
Твёрдое (железобетон)
Освещение ВПП
Постоянное
Тип: 
Аэродром
Класс аэродрома: 
Международный
Принадлежность: 
ГА
Статус: 
Действующий
Сайт: 
www.abakan.aero
E-mail аэродрома: 
info@abakan.aero
Страна: 
Россия
Регион: 
Республика Хакасия
Дополнительная информация: 
Оператор: ОАО "Аэропорт Абакан". PCN: 98/F/В/W/T. Военный индекс: XNAA / ЬНАА.
Схемы аэропортов: 
Погода: 

Авиационная погода в Абакане

Регион: 
Погода METAR: 
UNAA 282200Z 18005MPS CAVOK 01/M05 Q1019 R20/010065 NOSIG RMK QFE742
Время наблюдения
2020-10-28T22:00:00Z
Температура C
1.0
Точка росы
-5.0
Направление ветра
180
Скорость ветра (узлы)
10
Метео видимость
6.21
Явления погоды
Условия полета
VFR
Аэропорт подробнее: 
Прогноз TAF: 

Найти трансфер

С помощью этой формы Вы можете найти трансфер из аэропорта Абакан в город, аэропорт или вокзал:

Карта места

Javascript is required to view this map.

Погода в аэропортах:

Авиационная погода в Каяани

Регион: 
Погода METAR: 
EFKI 282220Z AUTO 16010KT 9999 -RA OVC009 07/07 Q1002
Время наблюдения
2020-10-28T22:20:00Z
Температура C
7.0
Точка росы
7.0
Направление ветра
160
Скорость ветра (узлы)
10
Метео видимость
6.21
Явления погоды
-RA
Условия полета
IFR

Авиационная погода в Витебске

Регион: 
Погода METAR: 
UMII 281536Z 17004G07MPS 4300 BR FEW030 11/09 Q1017 R23/110075 TEMPO 2000 SCT005
Время наблюдения
2020-10-28T15:36:00Z
Температура C
11.0
Точка росы
9.0
Направление ветра
170
Скорость ветра (узлы)
8
Метео видимость
2.67
Явления погоды
BR
Условия полета
IFR

Авиационная погода в Mărculeşti International Airport

Регион: 
Погода METAR: 
LUBM 280930Z 09005KT 4400 BR OVC010 15/13 Q1019 R07/CLRD65
Время наблюдения
2020-10-28T09:30:00Z
Температура C
15.0
Точка росы
13.0
Направление ветра
90
Скорость ветра (узлы)
5
Метео видимость
2.73
Явления погоды
BR
Условия полета
IFR

Авиационная погода в Тулча

Регион: 
Погода METAR: 
LRTC 282200Z AUTO 32005KT 0600 R34/0550V0750N FG FEW002/// SCT100/// 12/12 Q1017
Время наблюдения
2020-10-28T22:00:00Z
Температура C
12.0
Точка росы
12.0
Направление ветра
320
Скорость ветра (узлы)
5
Метео видимость
0.37
Явления погоды
FG
Условия полета
LIFR